sensor_id;sensor_type;location;lat;lon;timestamp;P1;durP1;ratioP1;P2;durP2;ratioP2
59970;SDS011;45825;45.434;9.116;2023-07-31T00:01:40;7.40;;;4.50;;
59970;SDS011;45825;45.434;9.116;2023-07-31T00:04:06;8.65;;;4.47;;
59970;SDS011;45825;45.434;9.116;2023-07-31T00:06:31;7.72;;;5.32;;
59970;SDS011;45825;45.434;9.116;2023-07-31T00:08:56;10.15;;;6.10;;
59970;SDS011;45825;45.434;9.116;2023-07-31T00:11:21;8.87;;;5.97;;
59970;SDS011;45825;45.434;9.116;2023-07-31T00:13:47;8.65;;;5.90;;
59970;SDS011;45825;45.434;9.116;2023-07-31T00:16:12;9.82;;;6.40;;
59970;SDS011;45825;45.434;9.116;2023-07-31T00:18:37;11.25;;;7.85;;
59970;SDS011;45825;45.434;9.116;2023-07-31T00:21:03;12.27;;;8.85;;
59970;SDS011;45825;45.434;9.116;2023-07-31T00:23:28;13.20;;;10.63;;
59970;SDS011;45825;45.434;9.116;2023-07-31T00:25:53;13.38;;;11.35;;
59970;SDS011;45825;45.434;9.116;2023-07-31T00:28:19;13.35;;;10.98;;
59970;SDS011;45825;45.434;9.116;2023-07-31T00:30:44;13.25;;;11.00;;
59970;SDS011;45825;45.434;9.116;2023-07-31T00:33:09;13.30;;;10.65;;
59970;SDS011;45825;45.434;9.116;2023-07-31T00:35:35;13.73;;;10.68;;
59970;SDS011;45825;45.434;9.116;2023-07-31T00:38:00;15.97;;;12.23;;
59970;SDS011;45825;45.434;9.116;2023-07-31T00:40:25;14.48;;;12.40;;
59970;SDS011;45825;45.434;9.116;2023-07-31T00:42:50;17.55;;;14.23;;
59970;SDS011;45825;45.434;9.116;2023-07-31T00:45:16;15.88;;;13.35;;
59970;SDS011;45825;45.434;9.116;2023-07-31T00:47:41;17.67;;;14.38;;
59970;SDS011;45825;45.434;9.116;2023-07-31T00:50:07;15.70;;;12.85;;
59970;SDS011;45825;45.434;9.116;2023-07-31T00:52:32;15.60;;;13.35;;
59970;SDS011;45825;45.434;9.116;2023-07-31T00:54:58;15.68;;;12.35;;
59970;SDS011;45825;45.434;9.116;2023-07-31T00:57:24;14.35;;;12.13;;
59970;SDS011;45825;45.434;9.116;2023-07-31T00:59:49;15.50;;;13.77;;
59970;SDS011;45825;45.434;9.116;2023-07-31T01:02:14;15.07;;;12.88;;
59970;SDS011;45825;45.434;9.116;2023-07-31T01:04:41;12.73;;;11.30;;
59970;SDS011;45825;45.434;9.116;2023-07-31T01:07:17;14.65;;;12.13;;
59970;SDS011;45825;45.434;9.116;2023-07-31T01:10:08;13.40;;;11.32;;
59970;SDS011;45825;45.434;9.116;2023-07-31T01:12:40;13.38;;;11.98;;
59970;SDS011;45825;45.434;9.116;2023-07-31T01:15:07;15.25;;;13.20;;
59970;SDS011;45825;45.434;9.116;2023-07-31T01:17:37;15.48;;;13.15;;
59970;SDS011;45825;45.434;9.116;2023-07-31T01:20:03;13.75;;;11.73;;
59970;SDS011;45825;45.434;9.116;2023-07-31T01:25:43;14.55;;;12.05;;
59970;SDS011;45825;45.434;9.116;2023-07-31T01:28:37;15.07;;;12.45;;
59970;SDS011;45825;45.434;9.116;2023-07-31T01:31:03;16.15;;;11.98;;
59970;SDS011;45825;45.434;9.116;2023-07-31T01:33:32;14.85;;;12.88;;
59970;SDS011;45825;45.434;9.116;2023-07-31T01:35:59;15.05;;;12.93;;
59970;SDS011;45825;45.434;9.116;2023-07-31T01:38:25;12.60;;;10.70;;
59970;SDS011;45825;45.434;9.116;2023-07-31T01:40:52;15.30;;;11.50;;
59970;SDS011;45825;45.434;9.116;2023-07-31T01:43:18;11.55;;;10.07;;
59970;SDS011;45825;45.434;9.116;2023-07-31T01:45:43;13.88;;;10.82;;
59970;SDS011;45825;45.434;9.116;2023-07-31T01:48:08;14.48;;;10.10;;
59970;SDS011;45825;45.434;9.116;2023-07-31T01:50:34;13.13;;;11.13;;
59970;SDS011;45825;45.434;9.116;2023-07-31T01:52:59;13.43;;;9.98;;
59970;SDS011;45825;45.434;9.116;2023-07-31T01:55:24;11.82;;;10.50;;
59970;SDS011;45825;45.434;9.116;2023-07-31T01:57:49;12.48;;;10.13;;
59970;SDS011;45825;45.434;9.116;2023-07-31T02:00:15;12.88;;;10.13;;
59970;SDS011;45825;45.434;9.116;2023-07-31T02:02:40;13.57;;;9.52;;
59970;SDS011;45825;45.434;9.116;2023-07-31T02:05:06;13.75;;;9.02;;
59970;SDS011;45825;45.434;9.116;2023-07-31T02:07:31;13.63;;;9.52;;
59970;SDS011;45825;45.434;9.116;2023-07-31T02:09:56;11.88;;;9.10;;
59970;SDS011;45825;45.434;9.116;2023-07-31T02:12:22;12.20;;;7.93;;
59970;SDS011;45825;45.434;9.116;2023-07-31T02:14:47;11.27;;;8.32;;
59970;SDS011;45825;45.434;9.116;2023-07-31T02:17:12;11.70;;;8.83;;
59970;SDS011;45825;45.434;9.116;2023-07-31T02:19:37;12.20;;;8.43;;
59970;SDS011;45825;45.434;9.116;2023-07-31T02:22:03;11.13;;;8.38;;
59970;SDS011;45825;45.434;9.116;2023-07-31T02:24:28;9.65;;;8.32;;
59970;SDS011;45825;45.434;9.116;2023-07-31T02:26:54;10.15;;;7.70;;
59970;SDS011;45825;45.434;9.116;2023-07-31T02:29:19;10.95;;;7.05;;
59970;SDS011;45825;45.434;9.116;2023-07-31T02:31:44;12.25;;;7.10;;
59970;SDS011;45825;45.434;9.116;2023-07-31T02:34:10;9.80;;;6.70;;
59970;SDS011;45825;45.434;9.116;2023-07-31T02:36:35;10.45;;;6.55;;
59970;SDS011;45825;45.434;9.116;2023-07-31T02:39:00;10.63;;;7.47;;
59970;SDS011;45825;45.434;9.116;2023-07-31T02:41:25;9.80;;;7.13;;
59970;SDS011;45825;45.434;9.116;2023-07-31T02:43:51;11.10;;;6.57;;
59970;SDS011;45825;45.434;9.116;2023-07-31T02:46:17;11.45;;;6.68;;
59970;SDS011;45825;45.434;9.116;2023-07-31T02:48:44;8.27;;;5.40;;
59970;SDS011;45825;45.434;9.116;2023-07-31T02:51:10;10.68;;;6.22;;
59970;SDS011;45825;45.434;9.116;2023-07-31T02:53:35;11.73;;;6.40;;
59970;SDS011;45825;45.434;9.116;2023-07-31T02:56:00;9.65;;;6.30;;
59970;SDS011;45825;45.434;9.116;2023-07-31T02:58:26;9.07;;;6.55;;
59970;SDS011;45825;45.434;9.116;2023-07-31T03:00:51;11.27;;;6.72;;
59970;SDS011;45825;45.434;9.116;2023-07-31T03:03:16;8.50;;;5.70;;
59970;SDS011;45825;45.434;9.116;2023-07-31T03:05:42;8.35;;;5.82;;
59970;SDS011;45825;45.434;9.116;2023-07-31T03:08:07;7.78;;;5.15;;
59970;SDS011;45825;45.434;9.116;2023-07-31T03:10:32;9.55;;;5.60;;
59970;SDS011;45825;45.434;9.116;2023-07-31T03:12:57;8.50;;;5.47;;
59970;SDS011;45825;45.434;9.116;2023-07-31T03:15:23;9.37;;;6.43;;
59970;SDS011;45825;45.434;9.116;2023-07-31T03:17:48;10.95;;;6.65;;
59970;SDS011;45825;45.434;9.116;2023-07-31T03:20:13;10.10;;;6.13;;
59970;SDS011;45825;45.434;9.116;2023-07-31T03:22:39;8.63;;;5.70;;
59970;SDS011;45825;45.434;9.116;2023-07-31T03:25:04;9.00;;;5.05;;
59970;SDS011;45825;45.434;9.116;2023-07-31T03:27:30;7.57;;;5.75;;
59970;SDS011;45825;45.434;9.116;2023-07-31T03:29:55;8.60;;;5.53;;
59970;SDS011;45825;45.434;9.116;2023-07-31T03:32:20;7.63;;;5.20;;
59970;SDS011;45825;45.434;9.116;2023-07-31T03:34:46;8.90;;;6.07;;
59970;SDS011;45825;45.434;9.116;2023-07-31T03:37:11;7.97;;;5.43;;
59970;SDS011;45825;45.434;9.116;2023-07-31T03:39:39;8.07;;;5.90;;
59970;SDS011;45825;45.434;9.116;2023-07-31T03:42:04;8.23;;;5.57;;
59970;SDS011;45825;45.434;9.116;2023-07-31T03:44:30;7.75;;;4.95;;
59970;SDS011;45825;45.434;9.116;2023-07-31T03:46:55;7.63;;;5.07;;
59970;SDS011;45825;45.434;9.116;2023-07-31T03:49:21;11.00;;;5.45;;
59970;SDS011;45825;45.434;9.116;2023-07-31T03:51:46;7.43;;;5.47;;
59970;SDS011;45825;45.434;9.116;2023-07-31T03:54:11;9.13;;;6.22;;
59970;SDS011;45825;45.434;9.116;2023-07-31T03:56:38;8.50;;;5.13;;
59970;SDS011;45825;45.434;9.116;2023-07-31T03:59:03;8.23;;;5.45;;
59970;SDS011;45825;45.434;9.116;2023-07-31T04:01:29;7.55;;;4.88;;
59970;SDS011;45825;45.434;9.116;2023-07-31T04:03:54;8.35;;;5.13;;
59970;SDS011;45825;45.434;9.116;2023-07-31T04:06:19;7.50;;;5.10;;
59970;SDS011;45825;45.434;9.116;2023-07-31T04:08:45;8.60;;;5.00;;
59970;SDS011;45825;45.434;9.116;2023-07-31T04:11:10;9.18;;;5.85;;
59970;SDS011;45825;45.434;9.116;2023-07-31T04:13:36;6.90;;;4.72;;
59970;SDS011;45825;45.434;9.116;2023-07-31T04:16:01;6.78;;;4.50;;
59970;SDS011;45825;45.434;9.116;2023-07-31T04:18:27;6.82;;;4.47;;
59970;SDS011;45825;45.434;9.116;2023-07-31T04:20:52;9.68;;;5.35;;
59970;SDS011;45825;45.434;9.116;2023-07-31T04:23:18;6.90;;;4.63;;
59970;SDS011;45825;45.434;9.116;2023-07-31T04:25:43;6.10;;;4.17;;
59970;SDS011;45825;45.434;9.116;2023-07-31T04:28:08;7.78;;;5.05;;
59970;SDS011;45825;45.434;9.116;2023-07-31T04:30:33;9.45;;;4.82;;
59970;SDS011;45825;45.434;9.116;2023-07-31T04:32:59;9.80;;;4.80;;
59970;SDS011;45825;45.434;9.116;2023-07-31T04:35:24;11.25;;;5.15;;
59970;SDS011;45825;45.434;9.116;2023-07-31T04:37:49;10.23;;;5.03;;
59970;SDS011;45825;45.434;9.116;2023-07-31T04:40:15;7.65;;;4.88;;
59970;SDS011;45825;45.434;9.116;2023-07-31T04:42:41;10.10;;;5.15;;
59970;SDS011;45825;45.434;9.116;2023-07-31T04:45:07;8.57;;;5.30;;
59970;SDS011;45825;45.434;9.116;2023-07-31T04:47:33;7.90;;;5.20;;
59970;SDS011;45825;45.434;9.116;2023-07-31T04:49:58;7.35;;;4.93;;
59970;SDS011;45825;45.434;9.116;2023-07-31T04:52:24;8.85;;;5.47;;
59970;SDS011;45825;45.434;9.116;2023-07-31T04:54:49;8.82;;;4.60;;
59970;SDS011;45825;45.434;9.116;2023-07-31T04:57:14;8.55;;;5.10;;
59970;SDS011;45825;45.434;9.116;2023-07-31T04:59:40;8.05;;;5.32;;
59970;SDS011;45825;45.434;9.116;2023-07-31T05:02:06;8.23;;;5.15;;
59970;SDS011;45825;45.434;9.116;2023-07-31T05:04:33;8.82;;;5.65;;
59970;SDS011;45825;45.434;9.116;2023-07-31T05:06:58;7.40;;;5.33;;
59970;SDS011;45825;45.434;9.116;2023-07-31T05:09:23;8.05;;;5.63;;
59970;SDS011;45825;45.434;9.116;2023-07-31T05:11:48;8.45;;;5.10;;
59970;SDS011;45825;45.434;9.116;2023-07-31T05:14:14;8.70;;;5.10;;
59970;SDS011;45825;45.434;9.116;2023-07-31T05:16:40;8.65;;;5.43;;
59970;SDS011;45825;45.434;9.116;2023-07-31T05:19:06;9.50;;;5.28;;
59970;SDS011;45825;45.434;9.116;2023-07-31T05:21:31;7.53;;;4.88;;
59970;SDS011;45825;45.434;9.116;2023-07-31T05:23:56;8.33;;;4.80;;
59970;SDS011;45825;45.434;9.116;2023-07-31T05:26:22;8.02;;;5.20;;
59970;SDS011;45825;45.434;9.116;2023-07-31T05:28:47;7.45;;;4.43;;
59970;SDS011;45825;45.434;9.116;2023-07-31T05:31:12;8.25;;;5.07;;
59970;SDS011;45825;45.434;9.116;2023-07-31T05:33:37;8.68;;;4.43;;
59970;SDS011;45825;45.434;9.116;2023-07-31T05:36:03;7.60;;;5.38;;
59970;SDS011;45825;45.434;9.116;2023-07-31T05:38:28;9.82;;;4.68;;
59970;SDS011;45825;45.434;9.116;2023-07-31T05:40:54;7.90;;;4.93;;
59970;SDS011;45825;45.434;9.116;2023-07-31T05:43:20;7.85;;;4.60;;
59970;SDS011;45825;45.434;9.116;2023-07-31T05:45:45;7.28;;;4.55;;
59970;SDS011;45825;45.434;9.116;2023-07-31T05:48:10;8.60;;;4.18;;
59970;SDS011;45825;45.434;9.116;2023-07-31T05:50:35;6.93;;;4.47;;
59970;SDS011;45825;45.434;9.116;2023-07-31T05:53:03;8.32;;;4.55;;
59970;SDS011;45825;45.434;9.116;2023-07-31T05:55:29;6.25;;;3.30;;
59970;SDS011;45825;45.434;9.116;2023-07-31T05:57:54;5.78;;;4.07;;
59970;SDS011;45825;45.434;9.116;2023-07-31T06:00:19;7.63;;;3.83;;
59970;SDS011;45825;45.434;9.116;2023-07-31T06:02:45;7.53;;;4.28;;
59970;SDS011;45825;45.434;9.116;2023-07-31T06:05:12;6.65;;;3.92;;
59970;SDS011;45825;45.434;9.116;2023-07-31T06:07:37;7.63;;;4.07;;
59970;SDS011;45825;45.434;9.116;2023-07-31T06:10:03;8.07;;;3.65;;
59970;SDS011;45825;45.434;9.116;2023-07-31T06:12:31;6.50;;;3.83;;
59970;SDS011;45825;45.434;9.116;2023-07-31T06:14:57;5.88;;;3.53;;
59970;SDS011;45825;45.434;9.116;2023-07-31T06:17:22;7.22;;;4.00;;
59970;SDS011;45825;45.434;9.116;2023-07-31T06:19:49;8.43;;;3.85;;
59970;SDS011;45825;45.434;9.116;2023-07-31T06:22:14;9.02;;;5.30;;
59970;SDS011;45825;45.434;9.116;2023-07-31T06:24:40;8.27;;;3.50;;
59970;SDS011;45825;45.434;9.116;2023-07-31T06:27:05;18.50;;;9.93;;
59970;SDS011;45825;45.434;9.116;2023-07-31T06:29:31;7.75;;;3.92;;
59970;SDS011;45825;45.434;9.116;2023-07-31T06:31:56;10.65;;;5.22;;
59970;SDS011;45825;45.434;9.116;2023-07-31T06:34:22;19.13;;;7.75;;
59970;SDS011;45825;45.434;9.116;2023-07-31T06:36:47;15.43;;;5.03;;
59970;SDS011;45825;45.434;9.116;2023-07-31T06:39:12;10.35;;;5.75;;
59970;SDS011;45825;45.434;9.116;2023-07-31T06:41:38;5.65;;;3.20;;
59970;SDS011;45825;45.434;9.116;2023-07-31T06:44:03;7.97;;;3.60;;
59970;SDS011;45825;45.434;9.116;2023-07-31T06:46:29;5.38;;;3.35;;
59970;SDS011;45825;45.434;9.116;2023-07-31T06:48:54;15.27;;;6.55;;
59970;SDS011;45825;45.434;9.116;2023-07-31T06:51:20;17.17;;;5.50;;
59970;SDS011;45825;45.434;9.116;2023-07-31T06:53:45;23.60;;;6.75;;
59970;SDS011;45825;45.434;9.116;2023-07-31T06:56:10;10.65;;;4.03;;
59970;SDS011;45825;45.434;9.116;2023-07-31T06:58:36;8.48;;;3.75;;
59970;SDS011;45825;45.434;9.116;2023-07-31T07:01:01;8.73;;;4.18;;
59970;SDS011;45825;45.434;9.116;2023-07-31T07:03:26;11.02;;;4.45;;
59970;SDS011;45825;45.434;9.116;2023-07-31T07:05:52;8.80;;;3.03;;
59970;SDS011;45825;45.434;9.116;2023-07-31T07:08:17;5.70;;;3.10;;
59970;SDS011;45825;45.434;9.116;2023-07-31T07:10:42;6.15;;;3.00;;
59970;SDS011;45825;45.434;9.116;2023-07-31T07:13:08;7.22;;;3.05;;
59970;SDS011;45825;45.434;9.116;2023-07-31T07:15:33;5.90;;;2.95;;
59970;SDS011;45825;45.434;9.116;2023-07-31T07:17:58;5.65;;;2.80;;
59970;SDS011;45825;45.434;9.116;2023-07-31T07:20:24;6.47;;;2.70;;
59970;SDS011;45825;45.434;9.116;2023-07-31T07:22:49;4.82;;;2.40;;
59970;SDS011;45825;45.434;9.116;2023-07-31T07:25:14;6.28;;;3.47;;
59970;SDS011;45825;45.434;9.116;2023-07-31T07:27:40;14.68;;;7.85;;
59970;SDS011;45825;45.434;9.116;2023-07-31T07:30:05;7.30;;;3.47;;
59970;SDS011;45825;45.434;9.116;2023-07-31T07:32:31;10.98;;;4.85;;
59970;SDS011;45825;45.434;9.116;2023-07-31T07:34:56;4.80;;;2.40;;
59970;SDS011;45825;45.434;9.116;2023-07-31T07:37:21;9.10;;;3.50;;
59970;SDS011;45825;45.434;9.116;2023-07-31T07:39:47;7.63;;;2.85;;
59970;SDS011;45825;45.434;9.116;2023-07-31T07:42:12;6.80;;;3.15;;
59970;SDS011;45825;45.434;9.116;2023-07-31T07:44:37;5.68;;;2.58;;
59970;SDS011;45825;45.434;9.116;2023-07-31T07:47:03;7.97;;;3.63;;
59970;SDS011;45825;45.434;9.116;2023-07-31T07:49:30;6.45;;;2.30;;
59970;SDS011;45825;45.434;9.116;2023-07-31T07:51:56;4.03;;;1.98;;
59970;SDS011;45825;45.434;9.116;2023-07-31T07:54:21;8.67;;;2.90;;
59970;SDS011;45825;45.434;9.116;2023-07-31T07:56:46;5.43;;;2.60;;
59970;SDS011;45825;45.434;9.116;2023-07-31T07:59:12;3.67;;;2.53;;
59970;SDS011;45825;45.434;9.116;2023-07-31T08:01:37;5.22;;;2.80;;
59970;SDS011;45825;45.434;9.116;2023-07-31T08:04:02;4.25;;;2.53;;
59970;SDS011;45825;45.434;9.116;2023-07-31T08:06:28;4.18;;;2.50;;
59970;SDS011;45825;45.434;9.116;2023-07-31T08:08:54;7.43;;;3.08;;
59970;SDS011;45825;45.434;9.116;2023-07-31T08:11:20;4.65;;;2.83;;
59970;SDS011;45825;45.434;9.116;2023-07-31T08:13:46;6.00;;;2.40;;
59970;SDS011;45825;45.434;9.116;2023-07-31T08:16:12;6.28;;;3.20;;
59970;SDS011;45825;45.434;9.116;2023-07-31T08:18:37;5.03;;;2.53;;
59970;SDS011;45825;45.434;9.116;2023-07-31T08:21:03;7.95;;;3.10;;
59970;SDS011;45825;45.434;9.116;2023-07-31T08:23:28;6.18;;;2.80;;
59970;SDS011;45825;45.434;9.116;2023-07-31T08:25:53;4.45;;;2.70;;
59970;SDS011;45825;45.434;9.116;2023-07-31T08:28:19;5.43;;;2.43;;
59970;SDS011;45825;45.434;9.116;2023-07-31T08:30:44;3.55;;;2.38;;
59970;SDS011;45825;45.434;9.116;2023-07-31T08:33:10;4.07;;;2.42;;
59970;SDS011;45825;45.434;9.116;2023-07-31T08:35:35;4.45;;;2.45;;
59970;SDS011;45825;45.434;9.116;2023-07-31T08:38:01;18.45;;;14.48;;
59970;SDS011;45825;45.434;9.116;2023-07-31T08:40:26;7.30;;;3.20;;
59970;SDS011;45825;45.434;9.116;2023-07-31T08:42:54;5.97;;;3.10;;
59970;SDS011;45825;45.434;9.116;2023-07-31T08:45:21;4.82;;;2.65;;
59970;SDS011;45825;45.434;9.116;2023-07-31T08:47:48;5.47;;;2.90;;
59970;SDS011;45825;45.434;9.116;2023-07-31T08:50:16;3.65;;;2.25;;
59970;SDS011;45825;45.434;9.116;2023-07-31T08:52:44;9.55;;;3.35;;
59970;SDS011;45825;45.434;9.116;2023-07-31T08:55:10;9.38;;;4.00;;
59970;SDS011;45825;45.434;9.116;2023-07-31T08:57:37;4.72;;;2.95;;
59970;SDS011;45825;45.434;9.116;2023-07-31T09:00:06;7.68;;;3.65;;
59970;SDS011;45825;45.434;9.116;2023-07-31T09:07:44;5.55;;;3.80;;
59970;SDS011;45825;45.434;9.116;2023-07-31T09:10:12;5.28;;;3.25;;
59970;SDS011;45825;45.434;9.116;2023-07-31T09:12:37;11.20;;;5.28;;
59970;SDS011;45825;45.434;9.116;2023-07-31T09:15:04;9.18;;;4.30;;
59970;SDS011;45825;45.434;9.116;2023-07-31T09:17:30;9.57;;;4.38;;
59970;SDS011;45825;45.434;9.116;2023-07-31T09:19:57;11.98;;;3.72;;
59970;SDS011;45825;45.434;9.116;2023-07-31T09:22:41;16.50;;;4.57;;
59970;SDS011;45825;45.434;9.116;2023-07-31T09:25:13;99.72;;;10.02;;
59970;SDS011;45825;45.434;9.116;2023-07-31T09:27:50;64.97;;;7.70;;
59970;SDS011;45825;45.434;9.116;2023-07-31T09:30:21;120.80;;;13.65;;
59970;SDS011;45825;45.434;9.116;2023-07-31T09:32:47;66.15;;;10.70;;
59970;SDS011;45825;45.434;9.116;2023-07-31T09:35:18;89.50;;;11.98;;
59970;SDS011;45825;45.434;9.116;2023-07-31T09:37:55;9.80;;;5.75;;
59970;SDS011;45825;45.434;9.116;2023-07-31T09:40:30;9.57;;;6.68;;
59970;SDS011;45825;45.434;9.116;2023-07-31T09:42:57;29.55;;;8.05;;
59970;SDS011;45825;45.434;9.116;2023-07-31T09:45:24;13.02;;;5.65;;
59970;SDS011;45825;45.434;9.116;2023-07-31T09:47:49;8.95;;;6.38;;
59970;SDS011;45825;45.434;9.116;2023-07-31T09:50:15;52.22;;;8.30;;
59970;SDS011;45825;45.434;9.116;2023-07-31T09:52:43;30.83;;;6.50;;
59970;SDS011;45825;45.434;9.116;2023-07-31T09:55:09;8.73;;;5.95;;
59970;SDS011;45825;45.434;9.116;2023-07-31T09:57:36;24.10;;;5.82;;
59970;SDS011;45825;45.434;9.116;2023-07-31T10:00:06;12.20;;;8.95;;
59970;SDS011;45825;45.434;9.116;2023-07-31T10:02:34;9.18;;;7.22;;
59970;SDS011;45825;45.434;9.116;2023-07-31T10:05:02;8.98;;;5.80;;
59970;SDS011;45825;45.434;9.116;2023-07-31T10:07:28;9.23;;;7.18;;
59970;SDS011;45825;45.434;9.116;2023-07-31T10:09:55;9.77;;;6.45;;
59970;SDS011;45825;45.434;9.116;2023-07-31T10:12:25;9.50;;;6.68;;
59970;SDS011;45825;45.434;9.116;2023-07-31T10:14:54;9.45;;;6.65;;
59970;SDS011;45825;45.434;9.116;2023-07-31T10:17:19;11.20;;;5.97;;
59970;SDS011;45825;45.434;9.116;2023-07-31T10:19:47;12.88;;;6.53;;
59970;SDS011;45825;45.434;9.116;2023-07-31T10:22:14;19.58;;;7.53;;
59970;SDS011;45825;45.434;9.116;2023-07-31T10:24:39;9.75;;;5.70;;
59970;SDS011;45825;45.434;9.116;2023-07-31T10:27:07;9.45;;;6.07;;
59970;SDS011;45825;45.434;9.116;2023-07-31T10:29:34;9.38;;;5.38;;
59970;SDS011;45825;45.434;9.116;2023-07-31T10:32:01;11.05;;;6.63;;
59970;SDS011;45825;45.434;9.116;2023-07-31T10:34:26;8.30;;;6.05;;
59970;SDS011;45825;45.434;9.116;2023-07-31T10:37:38;8.93;;;6.38;;
59970;SDS011;45825;45.434;9.116;2023-07-31T10:40:16;7.85;;;5.28;;
59970;SDS011;45825;45.434;9.116;2023-07-31T10:42:49;8.02;;;4.47;;
59970;SDS011;45825;45.434;9.116;2023-07-31T10:45:50;7.72;;;4.00;;
59970;SDS011;45825;45.434;9.116;2023-07-31T10:48:12;7.63;;;5.38;;
59970;SDS011;45825;45.434;9.116;2023-07-31T10:50:46;8.57;;;5.95;;
59970;SDS011;45825;45.434;9.116;2023-07-31T10:53:23;7.78;;;4.57;;
59970;SDS011;45825;45.434;9.116;2023-07-31T10:55:58;10.43;;;7.22;;
59970;SDS011;45825;45.434;9.116;2023-07-31T10:58:27;22.90;;;9.23;;
59970;SDS011;45825;45.434;9.116;2023-07-31T11:00:56;17.25;;;7.43;;
59970;SDS011;45825;45.434;9.116;2023-07-31T11:03:26;9.27;;;5.40;;
59970;SDS011;45825;45.434;9.116;2023-07-31T11:06:05;8.75;;;4.35;;
59970;SDS011;45825;45.434;9.116;2023-07-31T11:08:35;10.00;;;4.80;;
59970;SDS011;45825;45.434;9.116;2023-07-31T11:11:06;12.90;;;4.57;;
59970;SDS011;45825;45.434;9.116;2023-07-31T11:13:44;13.23;;;4.68;;
59970;SDS011;45825;45.434;9.116;2023-07-31T11:16:14;13.02;;;4.60;;
59970;SDS011;45825;45.434;9.116;2023-07-31T11:18:44;8.25;;;5.72;;
59970;SDS011;45825;45.434;9.116;2023-07-31T11:21:14;7.50;;;5.20;;
59970;SDS011;45825;45.434;9.116;2023-07-31T11:26:06;11.30;;;4.90;;
59970;SDS011;45825;45.434;9.116;2023-07-31T11:28:33;7.95;;;4.10;;
59970;SDS011;45825;45.434;9.116;2023-07-31T11:30:59;8.65;;;4.63;;
59970;SDS011;45825;45.434;9.116;2023-07-31T11:33:25;7.72;;;4.28;;
59970;SDS011;45825;45.434;9.116;2023-07-31T11:35:51;6.72;;;4.70;;
59970;SDS011;45825;45.434;9.116;2023-07-31T11:38:29;14.80;;;4.90;;
59970;SDS011;45825;45.434;9.116;2023-07-31T11:40:59;72.28;;;9.07;;
59970;SDS011;45825;45.434;9.116;2023-07-31T11:43:32;121.80;;;10.63;;
59970;SDS011;45825;45.434;9.116;2023-07-31T11:45:58;127.10;;;10.98;;
59970;SDS011;45825;45.434;9.116;2023-07-31T11:48:29;10.27;;;5.63;;
59970;SDS011;45825;45.434;9.116;2023-07-31T11:50:58;9.13;;;4.85;;
59970;SDS011;45825;45.434;9.116;2023-07-31T11:56:00;7.25;;;3.70;;
59970;SDS011;45825;45.434;9.116;2023-07-31T11:58:26;7.97;;;3.25;;
59970;SDS011;45825;45.434;9.116;2023-07-31T12:00:52;8.73;;;4.00;;
59970;SDS011;45825;45.434;9.116;2023-07-31T12:03:18;8.95;;;4.07;;
59970;SDS011;45825;45.434;9.116;2023-07-31T12:05:44;7.80;;;4.00;;
59970;SDS011;45825;45.434;9.116;2023-07-31T12:08:12;6.47;;;3.97;;
59970;SDS011;45825;45.434;9.116;2023-07-31T12:10:38;7.47;;;4.10;;
59970;SDS011;45825;45.434;9.116;2023-07-31T12:13:09;9.02;;;3.88;;
59970;SDS011;45825;45.434;9.116;2023-07-31T12:15:42;6.38;;;3.90;;
59970;SDS011;45825;45.434;9.116;2023-07-31T12:18:15;8.75;;;3.22;;
59970;SDS011;45825;45.434;9.116;2023-07-31T12:20:44;6.00;;;3.53;;
59970;SDS011;45825;45.434;9.116;2023-07-31T12:26:12;7.45;;;5.00;;
59970;SDS011;45825;45.434;9.116;2023-07-31T12:28:49;7.45;;;3.92;;
59970;SDS011;45825;45.434;9.116;2023-07-31T12:33:42;6.78;;;3.80;;
59970;SDS011;45825;45.434;9.116;2023-07-31T12:36:09;6.20;;;2.58;;
59970;SDS011;45825;45.434;9.116;2023-07-31T12:38:35;6.85;;;3.95;;
59970;SDS011;45825;45.434;9.116;2023-07-31T12:41:01;5.25;;;3.20;;
59970;SDS011;45825;45.434;9.116;2023-07-31T12:43:26;6.57;;;3.50;;
59970;SDS011;45825;45.434;9.116;2023-07-31T12:45:53;6.07;;;3.90;;
59970;SDS011;45825;45.434;9.116;2023-07-31T12:48:19;5.38;;;3.13;;
59970;SDS011;45825;45.434;9.116;2023-07-31T12:50:44;6.40;;;3.23;;
59970;SDS011;45825;45.434;9.116;2023-07-31T12:53:09;5.50;;;3.70;;
59970;SDS011;45825;45.434;9.116;2023-07-31T12:55:35;5.75;;;3.10;;
59970;SDS011;45825;45.434;9.116;2023-07-31T12:58:03;7.47;;;3.28;;
59970;SDS011;45825;45.434;9.116;2023-07-31T13:00:29;4.95;;;3.22;;
59970;SDS011;45825;45.434;9.116;2023-07-31T13:02:54;5.88;;;3.17;;
59970;SDS011;45825;45.434;9.116;2023-07-31T13:05:20;5.07;;;3.10;;
59970;SDS011;45825;45.434;9.116;2023-07-31T13:07:45;4.30;;;3.10;;
59970;SDS011;45825;45.434;9.116;2023-07-31T13:10:11;5.25;;;3.10;;
59970;SDS011;45825;45.434;9.116;2023-07-31T13:12:37;6.18;;;2.88;;
59970;SDS011;45825;45.434;9.116;2023-07-31T13:15:03;5.28;;;2.85;;
59970;SDS011;45825;45.434;9.116;2023-07-31T13:17:30;5.85;;;3.08;;
59970;SDS011;45825;45.434;9.116;2023-07-31T13:19:55;4.68;;;2.90;;
59970;SDS011;45825;45.434;9.116;2023-07-31T13:22:22;5.00;;;3.20;;
59970;SDS011;45825;45.434;9.116;2023-07-31T13:24:47;6.38;;;3.20;;
59970;SDS011;45825;45.434;9.116;2023-07-31T13:27:13;5.13;;;3.28;;
59970;SDS011;45825;45.434;9.116;2023-07-31T13:29:38;5.60;;;3.17;;
59970;SDS011;45825;45.434;9.116;2023-07-31T13:32:04;6.35;;;3.33;;
59970;SDS011;45825;45.434;9.116;2023-07-31T13:34:29;5.60;;;3.00;;
59970;SDS011;45825;45.434;9.116;2023-07-31T13:36:55;7.70;;;3.50;;
59970;SDS011;45825;45.434;9.116;2023-07-31T13:39:21;6.60;;;3.55;;
59970;SDS011;45825;45.434;9.116;2023-07-31T13:41:46;7.05;;;3.15;;
59970;SDS011;45825;45.434;9.116;2023-07-31T13:44:12;5.45;;;3.20;;
59970;SDS011;45825;45.434;9.116;2023-07-31T13:46:37;5.43;;;3.22;;
59970;SDS011;45825;45.434;9.116;2023-07-31T13:49:02;3.78;;;3.10;;
59970;SDS011;45825;45.434;9.116;2023-07-31T13:51:28;7.83;;;2.90;;
59970;SDS011;45825;45.434;9.116;2023-07-31T13:53:53;5.10;;;3.15;;
59970;SDS011;45825;45.434;9.116;2023-07-31T13:56:18;5.47;;;2.80;;
59970;SDS011;45825;45.434;9.116;2023-07-31T13:58:44;6.05;;;3.17;;
59970;SDS011;45825;45.434;9.116;2023-07-31T14:01:09;4.77;;;2.70;;
59970;SDS011;45825;45.434;9.116;2023-07-31T14:03:34;5.82;;;2.95;;
59970;SDS011;45825;45.434;9.116;2023-07-31T14:06:00;5.00;;;2.90;;
59970;SDS011;45825;45.434;9.116;2023-07-31T14:08:25;5.28;;;2.83;;
59970;SDS011;45825;45.434;9.116;2023-07-31T14:10:51;3.92;;;2.40;;
59970;SDS011;45825;45.434;9.116;2023-07-31T14:13:16;4.07;;;2.53;;
59970;SDS011;45825;45.434;9.116;2023-07-31T14:15:41;7.55;;;3.10;;
59970;SDS011;45825;45.434;9.116;2023-07-31T14:18:08;4.60;;;2.70;;
59970;SDS011;45825;45.434;9.116;2023-07-31T14:20:33;13.48;;;3.00;;
59970;SDS011;45825;45.434;9.116;2023-07-31T14:22:58;7.70;;;2.78;;
59970;SDS011;45825;45.434;9.116;2023-07-31T14:25:24;8.77;;;2.70;;
59970;SDS011;45825;45.434;9.116;2023-07-31T14:27:49;5.85;;;3.00;;
59970;SDS011;45825;45.434;9.116;2023-07-31T14:30:15;5.30;;;2.80;;
59970;SDS011;45825;45.434;9.116;2023-07-31T14:32:41;6.22;;;2.90;;
59970;SDS011;45825;45.434;9.116;2023-07-31T14:35:06;7.95;;;3.00;;
59970;SDS011;45825;45.434;9.116;2023-07-31T14:37:42;4.70;;;2.85;;
59970;SDS011;45825;45.434;9.116;2023-07-31T14:40:09;5.07;;;2.90;;
59970;SDS011;45825;45.434;9.116;2023-07-31T14:42:35;5.72;;;2.50;;
59970;SDS011;45825;45.434;9.116;2023-07-31T14:45:02;5.30;;;2.60;;
59970;SDS011;45825;45.434;9.116;2023-07-31T14:47:28;7.32;;;2.70;;
59970;SDS011;45825;45.434;9.116;2023-07-31T14:49:55;5.55;;;2.85;;
59970;SDS011;45825;45.434;9.116;2023-07-31T14:52:21;6.15;;;2.78;;
59970;SDS011;45825;45.434;9.116;2023-07-31T14:54:46;4.43;;;2.90;;
59970;SDS011;45825;45.434;9.116;2023-07-31T14:57:12;4.37;;;2.40;;